createdAt,value
2022-10-14T00:01:16.020Z,99458.82
2022-10-14T00:06:39.313Z,99455.79
2022-10-14T00:11:46.810Z,99447.66
2022-10-14T00:16:56.635Z,99447.55
2022-10-14T00:22:03.645Z,99451.69
2022-10-14T00:27:11.944Z,99455.11
2022-10-14T00:32:19.644Z,99467.21
2022-10-14T00:40:56.449Z,99446.42
2022-10-14T00:46:04.543Z,99442.13
2022-10-14T00:51:11.918Z,99439.98
2022-10-14T00:56:25.805Z,99432.48
2022-10-14T01:01:33.134Z,99435.59
2022-10-14T01:06:51.585Z,99432.59
2022-10-14T01:12:40.571Z,99431.38
2022-10-14T01:17:56.234Z,99421.41
2022-10-14T01:23:23.191Z,99418.86
2022-10-14T01:28:44.832Z,99419.90
2022-10-14T01:33:58.187Z,99415.96
2022-10-14T01:39:12.778Z,99417.46
2022-10-14T01:44:24.262Z,99407.07
2022-10-14T01:49:36.045Z,99406.42
2022-10-14T01:54:45.399Z,99406.08
2022-10-14T01:59:53.727Z,99398.07
2022-10-14T02:05:01.148Z,99397.41
2022-10-14T02:10:15.406Z,99398.02
2022-10-14T02:15:32.959Z,99396.14
2022-10-14T02:20:49.079Z,99397.73
2022-10-14T02:25:57.611Z,99394.00
2022-10-14T02:31:09.218Z,99385.71
2022-10-14T02:36:21.549Z,99374.52
2022-10-14T02:41:33.948Z,99377.14
2022-10-14T02:46:42.477Z,99376.04
2022-10-14T02:51:52.348Z,99375.69
2022-10-14T02:56:59.552Z,99376.15
2022-10-14T03:02:05.860Z,99374.30
2022-10-14T03:07:14.145Z,99372.45
2022-10-14T03:12:23.647Z,99373.67
2022-10-14T03:17:31.031Z,99365.35
2022-10-14T03:22:38.346Z,99370.60
2022-10-14T03:27:46.606Z,99369.39
2022-10-14T03:32:55.308Z,99369.98
2022-10-14T03:38:04.862Z,99364.45
2022-10-14T03:43:12.335Z,99364.29
2022-10-14T03:48:19.680Z,99363.46
2022-10-14T03:53:26.908Z,99357.14
2022-10-14T03:58:33.997Z,99349.88
2022-10-14T04:03:42.248Z,99343.28
2022-10-14T04:08:49.956Z,99344.75
2022-10-14T04:14:00.724Z,99344.40
2022-10-14T04:19:08.782Z,99343.54
2022-10-14T04:24:18.793Z,99342.21
2022-10-14T04:29:27.287Z,99340.58
2022-10-14T04:40:27.564Z,99330.73
2022-10-14T04:45:35.142Z,99330.23
2022-10-14T04:50:42.539Z,99329.92
2022-10-14T04:55:52.263Z,99330.05
2022-10-14T05:00:59.928Z,99327.41
2022-10-14T05:06:08.121Z,99325.69
2022-10-14T05:11:15.907Z,99324.88
2022-10-14T05:16:23.576Z,99324.23
2022-10-14T05:21:30.974Z,99318.64
2022-10-14T05:26:38.173Z,99313.17
2022-10-14T05:31:44.193Z,99318.53
2022-10-14T05:36:51.924Z,99325.65
2022-10-14T05:41:59.229Z,99326.63
2022-10-14T05:47:06.632Z,99321.02
2022-10-14T05:52:13.788Z,99324.69
2022-10-14T05:57:44.586Z,99324.20
2022-10-14T06:02:52.507Z,99310.12
2022-10-14T06:08:00.091Z,99319.80
2022-10-14T06:13:07.632Z,99321.58
2022-10-14T06:18:14.785Z,99318.27
2022-10-14T06:23:22.814Z,99321.52
2022-10-14T06:28:30.646Z,99323.55
2022-10-14T06:33:37.965Z,99323.48
2022-10-14T06:38:45.223Z,99330.67
2022-10-14T06:43:52.671Z,99327.89
2022-10-14T06:48:59.974Z,99332.05
2022-10-14T06:54:08.221Z,99336.38
2022-10-14T06:59:15.789Z,99332.82
2022-10-14T07:04:23.952Z,99329.64
2022-10-14T07:09:31.739Z,99329.97
2022-10-14T07:14:38.891Z,99331.38
2022-10-14T07:19:46.352Z,99324.01
2022-10-14T07:24:54.308Z,99326.04
2022-10-14T07:30:01.831Z,99324.05
2022-10-14T07:35:10.822Z,99322.05
2022-10-14T07:40:18.322Z,99319.55
2022-10-14T07:45:26.875Z,99325.58
2022-10-14T07:50:34.218Z,99331.08
2022-10-14T07:55:52.667Z,99329.17
2022-10-14T08:01:01.476Z,99327.47
2022-10-14T08:06:10.779Z,99326.66
2022-10-14T08:11:21.032Z,99323.38
2022-10-14T08:16:30.194Z,99325.52
2022-10-14T08:21:37.517Z,99322.88
2022-10-14T08:26:53.872Z,99320.59
2022-10-14T08:40:16.933Z,99314.48
2022-10-14T08:45:33.624Z,99319.22
2022-10-14T08:50:50.573Z,99317.55
2022-10-14T08:56:01.414Z,99314.41
2022-10-14T09:01:20.610Z,99310.35
2022-10-14T09:15:19.399Z,99309.71
2022-10-14T09:20:26.254Z,99307.48
2022-10-14T09:25:33.655Z,99309.06
2022-10-14T09:30:40.346Z,99311.88
2022-10-14T09:35:44.627Z,99312.22
2022-10-14T09:40:52.280Z,99312.05
2022-10-14T09:45:59.680Z,99308.35
2022-10-14T09:51:05.854Z,99304.88
2022-10-14T09:56:11.928Z,99301.08
2022-10-14T10:01:19.034Z,99299.72
2022-10-14T10:06:25.642Z,99298.67
2022-10-14T10:11:32.847Z,99297.65
2022-10-14T10:16:36.975Z,99297.55
2022-10-14T10:21:42.093Z,99296.59
2022-10-14T10:26:47.189Z,99292.91
2022-10-14T10:32:16.006Z,99286.64
2022-10-14T10:37:28.765Z,99285.78
2022-10-14T10:42:40.286Z,99281.58
2022-10-14T10:47:49.931Z,99280.45
2022-10-14T10:53:10.942Z,99282.33
2022-10-14T10:58:25.989Z,99277.66
2022-10-14T11:03:55.671Z,99273.56
2022-10-14T11:09:23.158Z,99272.73
2022-10-14T11:14:52.570Z,99268.66
2022-10-14T11:20:05.304Z,99259.97
2022-10-14T11:25:22.607Z,99258.59
2022-10-14T11:30:38.036Z,99251.75
2022-10-14T11:35:52.830Z,99253.61
2022-10-14T11:41:06.688Z,99250.06
2022-10-14T11:46:14.356Z,99250.27
2022-10-14T11:51:26.097Z,99239.98
2022-10-14T11:56:37.606Z,99244.67
2022-10-14T12:01:44.183Z,99240.58
2022-10-14T12:06:56.038Z,99235.61
2022-10-14T12:12:05.436Z,99231.95
2022-10-14T12:17:19.391Z,99229.77
2022-10-14T12:22:26.303Z,99230.13
2022-10-14T12:27:31.085Z,99222.48
2022-10-14T12:32:35.257Z,99217.08
2022-10-14T12:37:49.518Z,99222.91
2022-10-14T12:43:01.681Z,99222.05
2022-10-14T12:48:19.481Z,99223.52
2022-10-14T12:53:27.120Z,99217.80
2022-10-14T12:58:33.930Z,99226.18
2022-10-14T13:03:44.426Z,99225.58
2022-10-14T13:09:19.890Z,99225.70
2022-10-14T13:14:26.732Z,99220.80
2022-10-14T13:19:46.021Z,99222.81
2022-10-14T13:24:52.904Z,99219.31
2022-10-14T13:30:17.246Z,99217.61
2022-10-14T13:35:30.042Z,99216.29
2022-10-14T13:40:37.175Z,99207.86
2022-10-14T13:45:45.463Z,99206.46
2022-10-14T13:50:58.707Z,99208.15
2022-10-14T13:56:22.643Z,99204.14
2022-10-14T14:01:32.516Z,99199.96
2022-10-14T14:07:03.037Z,99198.13
2022-10-14T14:12:13.642Z,99198.92
2022-10-14T14:17:22.346Z,99196.13
2022-10-14T14:22:27.894Z,99192.29
2022-10-14T14:37:53.243Z,99184.14
2022-10-14T14:43:04.785Z,99185.21
2022-10-14T14:48:16.841Z,99180.39
2022-10-14T14:53:29.790Z,99179.75
2022-10-14T14:58:44.501Z,99181.30
2022-10-14T15:04:13.587Z,99181.91
2022-10-14T15:09:32.490Z,99178.27
2022-10-14T15:14:49.419Z,99173.34
2022-10-14T15:20:00.444Z,99168.23
2022-10-14T15:25:14.763Z,99168.52
2022-10-14T15:30:36.000Z,99166.47
2022-10-14T15:35:44.468Z,99171.05
2022-10-14T15:40:52.753Z,99169.69
2022-10-14T15:46:19.412Z,99164.95
2022-10-14T15:51:30.242Z,99169.92
2022-10-14T15:56:39.503Z,99169.76
2022-10-14T16:01:49.646Z,99168.50
2022-10-14T16:06:58.344Z,99173.52
2022-10-14T16:12:06.797Z,99172.55
2022-10-14T16:17:14.245Z,99167.79
2022-10-14T16:22:22.437Z,99170.73
2022-10-14T16:27:29.985Z,99174.20
2022-10-14T16:32:37.137Z,99171.00
2022-10-14T16:42:32.510Z,99183.56
2022-10-14T16:47:41.099Z,99179.44
2022-10-14T16:53:07.766Z,99179.40
2022-10-14T16:58:15.794Z,99186.24
2022-10-14T17:03:24.132Z,99188.75
2022-10-14T17:08:31.447Z,99191.73
2022-10-14T17:13:39.464Z,99192.65
2022-10-14T17:24:04.127Z,99199.30
2022-10-14T17:29:11.573Z,99199.10
2022-10-14T17:34:19.921Z,99195.35
2022-10-14T17:39:29.571Z,99194.42
2022-10-14T17:44:43.771Z,99195.55
2022-10-14T17:49:52.973Z,99191.95
2022-10-14T17:55:01.481Z,99193.02
2022-10-14T18:00:11.696Z,99190.77
2022-10-14T18:05:20.187Z,99190.30
2022-10-14T18:10:27.390Z,99195.27
2022-10-14T18:15:36.676Z,99190.84
2022-10-14T18:20:43.845Z,99186.48
2022-10-14T18:25:52.486Z,99181.66
2022-10-14T18:31:04.292Z,99180.88
2022-10-14T18:36:17.114Z,99179.73
2022-10-14T18:41:25.962Z,99175.90
2022-10-14T18:46:35.815Z,99177.02
2022-10-14T18:51:43.643Z,99176.70
2022-10-14T18:56:52.080Z,99179.73
2022-10-14T19:02:00.047Z,99180.04
2022-10-14T19:07:08.858Z,99181.81
2022-10-14T19:12:33.664Z,99178.30
2022-10-14T19:17:41.431Z,99180.90
2022-10-14T19:22:54.252Z,99183.72
2022-10-14T19:28:04.139Z,99183.08
2022-10-14T19:33:11.277Z,99180.53
2022-10-14T19:38:22.493Z,99178.60
2022-10-14T19:43:31.422Z,99177.83
2022-10-14T19:48:39.448Z,99177.77
2022-10-14T19:53:47.008Z,99177.70
2022-10-14T19:58:56.038Z,99178.13
2022-10-14T20:04:04.781Z,99176.11
2022-10-14T20:09:14.844Z,99171.20
2022-10-14T20:14:22.519Z,99171.60
2022-10-14T20:19:29.756Z,99173.04
2022-10-14T20:24:40.243Z,99170.69
2022-10-14T20:29:48.032Z,99172.02
2022-10-14T20:34:56.049Z,99169.62
2022-10-14T20:40:04.627Z,99172.45
2022-10-14T20:45:13.644Z,99169.76
2022-10-14T20:50:21.847Z,99170.42
2022-10-14T20:55:29.787Z,99166.46
2022-10-14T21:00:37.422Z,99163.52
2022-10-14T21:05:45.413Z,99157.87
2022-10-14T21:11:00.955Z,99154.42
2022-10-14T21:16:21.018Z,99152.16
2022-10-14T21:21:31.500Z,99148.47
2022-10-14T21:26:39.008Z,99150.13
2022-10-14T21:31:46.310Z,99145.07
2022-10-14T21:36:54.739Z,99138.77
2022-10-14T21:42:02.137Z,99135.56
2022-10-14T21:47:09.754Z,99129.80
2022-10-14T21:52:18.514Z,99128.80
2022-10-14T21:57:26.443Z,99123.56
2022-10-14T22:02:34.309Z,99118.64
2022-10-14T22:07:41.358Z,99115.02
2022-10-14T22:12:49.534Z,99115.60
2022-10-14T22:17:57.947Z,99120.00
2022-10-14T22:23:05.983Z,99117.52
2022-10-14T22:28:13.903Z,99118.66
2022-10-14T22:33:21.400Z,99111.70
2022-10-14T22:38:29.308Z,99110.36
2022-10-14T22:43:37.467Z,99110.14
2022-10-14T22:48:45.661Z,99111.06
2022-10-14T22:53:54.937Z,99108.69
2022-10-14T22:59:05.186Z,99111.86
2022-10-14T23:04:13.531Z,99113.95
2022-10-14T23:09:21.861Z,99117.19
2022-10-14T23:14:30.935Z,99120.93
2022-10-14T23:19:38.183Z,99120.88
2022-10-14T23:24:45.507Z,99124.39
2022-10-14T23:29:53.617Z,99120.77
2022-10-14T23:35:03.585Z,99122.27
2022-10-14T23:40:14.479Z,99117.48
2022-10-14T23:45:23.111Z,99115.24
2022-10-14T23:50:30.317Z,99116.10
2022-10-14T23:55:37.945Z,99110.54
